Agonistis — SVBC3 — position and weather

sailwx.info

Track history (hours):
 
Tides and Currents Weather Stations Pressure Air Temp Water Temp Dewpoint Dewpoint Depression Visibility Wind Speed Wind Dir Waves Ship Positions

Agonistis

Last reported at 2015-Jun-14 04:33 UTC. Time now 2015-Jul-07 19:49 UTC.
Position N 01°54' E 102°23'.
Warning: this ship's position is 23 days out of date.

Length 196 m; draft 10.5 m.

Type: Cargo ship. MMSI: 241048000.

Date/timePositionNaut miles runAvg speedWind from/ knotsBaromVisibWave heightAir tempDewpointWater temp
2015-Jun-14 04:33N 01°54' E 102°23'1313.1
2015-Jun-14 03:33N 01°48' E 102°34'1312.4
2015-Jun-14 02:31N 01°42' E 102°45'5911.2
2015-Jun-13 21:17N 01°12' E 103°36'17 9.5
2015-Jun-13 19:28N 01°13' E 103°53'5 5.0
2015-Jun-13 18:33N 01°15' E 103°57'2 1.7
2015-Jun-13 17:32N 01°17' E 103°56'0 0.0
2015-Jun-13 16:32N 01°17' E 103°56'0 0.0
2015-Jun-13 15:26N 01°17' E 103°56'0 0.0
2015-Jun-13 14:32N 01°17' E 103°56'0 0.2
2015-Jun-13 13:32N 01°17' E 103°56'0 0.0
2015-Jun-13 12:32N 01°17' E 103°56'0 0.0
2015-Jun-13 11:26N 01°17' E 103°56'0 0.0
2015-Jun-13 10:32N 01°17' E 103°56'0 0.0
2015-Jun-13 09:33N 01°17' E 103°56'0 0.1
2015-Jun-13 08:33N 01°17' E 103°56'1 1.0
2015-Jun-13 07:33N 01°17' E 103°57'4 4.1
2015-Jun-13 06:33N 01°16' E 104°01'13 9.9
2015-Jun-13 05:15N 01°17' E 104°14'  
2015-Jun-07 20:24N 22°26' E 119°47'1011.9
2015-Jun-07 19:33N 22°34' E 119°53'1212.5
2015-Jun-07 18:34N 22°47' E 119°53'8010.8
2015-Jun-07 11:09N 24°06' E 119°55'38312.5
2015-Jun-06 04:30N 29°29' E 123°46'1112.1
2015-Jun-06 03:33N 29°39' E 123°52'1212.0
2015-Jun-06 02:32N 29°49' E 123°60'1312.1
2015-Jun-06 01:30N 30°02' E 123°59'2412.6
2015-Jun-05 23:33N 30°26' E 123°59'1313.2
2015-Jun-05 22:33N 30°39' E 123°60'1313.1
2015-Jun-05 21:33N 30°53' E 124°00'1312.7
2015-Jun-05 20:33N 31°05' E 124°00'4511.3
2015-Jun-05 16:33N 31°51' E 123°60'1411.0
2015-Jun-05 15:17N 32°04' E 123°60'912.0
2015-Jun-05 14:33N 32°13' E 123°60'21712.7
2015-Jun-04 21:27N 35°50' E 123°60'1111.4
2015-Jun-04 20:31N 36°01' E 124°00'1111.3
2015-Jun-04 19:33N 36°12' E 124°00'1411.6
2015-Jun-04 18:18N 36°26' E 124°00'911.8
2015-Jun-04 17:33N 36°35' E 124°00'1312.5
2015-Jun-04 16:33N 36°48' E 123°60'1312.7
2015-Jun-04 15:33N 37°01' E 123°59'1312.7
2015-Jun-04 14:33N 37°10' E 123°49'1212.0
2015-Jun-04 13:33N 37°19' E 123°39'1111.4
2015-Jun-04 12:33N 37°29' E 123°31'1111.0
2015-Jun-04 11:32N 37°37' E 123°22'1110.9
2015-Jun-04 10:33N 37°46' E 123°14'5911.7
2015-Jun-04 05:31N 38°13' E 122°07'  
Track history (hours):
 
Tides and Currents Weather Stations Pressure Air Temp Water Temp Dewpoint Dewpoint Depression Visibility Wind Speed Wind Dir Waves Ship Positions

Agonistis

Last reported at 2015-Jun-14 04:33 UTC. Time now 2015-Jul-07 19:49 UTC.
Position N 01°54' E 102°23'.
Warning: this ship's position is 23 days out of date.

Length 196 m; draft 10.5 m.

Type: Cargo ship. MMSI: 241048000.

Date/timePositionNaut miles runAvg speedWind from/ knotsBaromVisibWave heightAir tempDewpointWater temp
2015-Jun-14 04:33N 01°54' E 102°23'1313.1
2015-Jun-14 03:33N 01°48' E 102°34'1312.4
2015-Jun-14 02:31N 01°42' E 102°45'5911.2
2015-Jun-13 21:17N 01°12' E 103°36'17 9.5
2015-Jun-13 19:28N 01°13' E 103°53'5 5.0
2015-Jun-13 18:33N 01°15' E 103°57'2 1.7
2015-Jun-13 17:32N 01°17' E 103°56'0 0.0
2015-Jun-13 16:32N 01°17' E 103°56'0 0.0
2015-Jun-13 15:26N 01°17' E 103°56'0 0.0
2015-Jun-13 14:32N 01°17' E 103°56'0 0.2
2015-Jun-13 13:32N 01°17' E 103°56'0 0.0
2015-Jun-13 12:32N 01°17' E 103°56'0 0.0
2015-Jun-13 11:26N 01°17' E 103°56'0 0.0
2015-Jun-13 10:32N 01°17' E 103°56'0 0.0
2015-Jun-13 09:33N 01°17' E 103°56'0 0.1
2015-Jun-13 08:33N 01°17' E 103°56'1 1.0
2015-Jun-13 07:33N 01°17' E 103°57'4 4.1
2015-Jun-13 06:33N 01°16' E 104°01'13 9.9
2015-Jun-13 05:15N 01°17' E 104°14'  
2015-Jun-07 20:24N 22°26' E 119°47'1011.9
2015-Jun-07 19:33N 22°34' E 119°53'1212.5
2015-Jun-07 18:34N 22°47' E 119°53'8010.8
2015-Jun-07 11:09N 24°06' E 119°55'38312.5
2015-Jun-06 04:30N 29°29' E 123°46'1112.1
2015-Jun-06 03:33N 29°39' E 123°52'1212.0
2015-Jun-06 02:32N 29°49' E 123°60'1312.1
2015-Jun-06 01:30N 30°02' E 123°59'2412.6
2015-Jun-05 23:33N 30°26' E 123°59'1313.2
2015-Jun-05 22:33N 30°39' E 123°60'1313.1
2015-Jun-05 21:33N 30°53' E 124°00'1312.7
2015-Jun-05 20:33N 31°05' E 124°00'4511.3
2015-Jun-05 16:33N 31°51' E 123°60'1411.0
2015-Jun-05 15:17N 32°04' E 123°60'912.0
2015-Jun-05 14:33N 32°13' E 123°60'21712.7
2015-Jun-04 21:27N 35°50' E 123°60'1111.4
2015-Jun-04 20:31N 36°01' E 124°00'1111.3
2015-Jun-04 19:33N 36°12' E 124°00'1411.6
2015-Jun-04 18:18N 36°26' E 124°00'911.8
2015-Jun-04 17:33N 36°35' E 124°00'1312.5
2015-Jun-04 16:33N 36°48' E 123°60'1312.7
2015-Jun-04 15:33N 37°01' E 123°59'1312.7
2015-Jun-04 14:33N 37°10' E 123°49'1212.0
2015-Jun-04 13:33N 37°19' E 123°39'1111.4
2015-Jun-04 12:33N 37°29' E 123°31'1111.0
2015-Jun-04 11:32N 37°37' E 123°22'1110.9
2015-Jun-04 10:33N 37°46' E 123°14'5911.7
2015-Jun-04 05:31N 38°13' E 122°07'  

Dump ship's entire track history